createdAt,value
2022-11-17T00:02:39.012Z,100106.16
2022-11-17T00:07:43.128Z,100108.81
2022-11-17T00:12:45.514Z,100114.94
2022-11-17T00:17:47.930Z,100114.06
2022-11-17T00:22:51.418Z,100101.75
2022-11-17T00:27:53.659Z,100112.28
2022-11-17T00:33:01.172Z,100098.22
2022-11-17T00:38:04.629Z,100108.75
2022-11-17T00:43:06.778Z,100113.13
2022-11-17T00:48:08.730Z,100112.19
2022-11-17T00:53:12.161Z,100120.09
2022-11-17T00:58:13.993Z,100126.19
2022-11-17T01:03:16.109Z,100115.63
2022-11-17T01:08:19.799Z,100101.66
2022-11-17T01:13:22.582Z,100099.00
2022-11-17T01:18:24.901Z,100105.09
2022-11-17T01:23:28.567Z,100107.72
2022-11-17T01:28:30.990Z,100094.56
2022-11-17T01:33:34.296Z,100073.50
2022-11-17T01:38:38.177Z,100081.38
2022-11-17T01:43:43.637Z,100082.28
2022-11-17T01:48:46.578Z,100093.63
2022-11-17T01:53:51.212Z,100084.91
2022-11-17T01:58:58.746Z,100091.03
2022-11-17T02:04:01.747Z,100091.91
2022-11-17T02:09:05.005Z,100074.41
2022-11-17T02:14:08.642Z,100077.88
2022-11-17T02:19:15.457Z,100069.13
2022-11-17T02:24:32.735Z,100067.38
2022-11-17T02:29:42.319Z,100068.28
2022-11-17T02:34:50.795Z,100063.00
2022-11-17T02:39:59.460Z,100047.25
2022-11-17T02:45:05.828Z,100052.53
2022-11-17T02:50:11.003Z,100037.63
2022-11-17T02:55:14.350Z,100027.16
2022-11-17T03:00:20.378Z,100017.53
2022-11-17T03:05:29.952Z,100021.03
2022-11-17T03:10:45.616Z,100027.97
2022-11-17T03:15:55.079Z,100025.34
2022-11-17T03:21:06.525Z,100035.00
2022-11-17T03:26:12.713Z,100033.22
2022-11-17T03:31:18.344Z,100029.75
2022-11-17T03:36:27.409Z,100034.97
2022-11-17T03:41:33.305Z,100031.50
2022-11-17T03:46:39.261Z,100025.34
2022-11-17T03:51:41.287Z,100018.34
2022-11-17T03:56:52.079Z,100024.47
2022-11-17T04:01:56.168Z,100021.84
2022-11-17T04:06:58.449Z,100025.34
2022-11-17T04:12:00.614Z,100020.09
2022-11-17T04:17:04.337Z,100006.97
2022-11-17T04:22:06.473Z,100006.09
2022-11-17T04:27:08.676Z,100004.38
2022-11-17T04:32:11.806Z,99986.88
2022-11-17T04:37:13.972Z,99990.34
2022-11-17T04:42:15.923Z,99979.88
2022-11-17T04:47:19.501Z,99980.72
2022-11-17T04:52:25.538Z,99978.97
2022-11-17T04:57:32.308Z,99978.13
2022-11-17T05:02:35.400Z,99972.88
2022-11-17T05:07:37.284Z,99963.25
2022-11-17T05:12:39.363Z,99972.84
2022-11-17T05:17:43.091Z,99966.75
2022-11-17T05:22:44.784Z,99969.38
2022-11-17T05:27:49.741Z,99946.63
2022-11-17T05:32:54.252Z,99953.63
2022-11-17T05:37:56.078Z,99951.88
2022-11-17T05:42:57.836Z,99947.53
2022-11-17T05:48:00.947Z,99944.00
2022-11-17T05:53:04.047Z,99920.41
2022-11-17T05:58:12.876Z,99937.88
2022-11-17T06:03:20.267Z,99929.13
2022-11-17T06:08:22.809Z,99930.88
2022-11-17T06:13:24.631Z,99923.03
2022-11-17T06:18:32.219Z,99913.41
2022-11-17T06:23:36.460Z,99918.69
2022-11-17T06:28:41.075Z,99911.69
2022-11-17T06:33:45.397Z,99902.94
2022-11-17T06:38:47.173Z,99908.16
2022-11-17T06:43:48.955Z,99914.31
2022-11-17T06:48:54.564Z,99913.44
2022-11-17T06:53:56.636Z,99907.31
2022-11-17T06:58:58.389Z,99902.03
2022-11-17T07:04:01.561Z,99910.81
2022-11-17T07:09:03.961Z,99919.56
2022-11-17T07:14:06.069Z,99913.41
2022-11-17T07:19:10.115Z,99916.06
2022-11-17T07:24:12.405Z,99920.44
2022-11-17T07:29:14.065Z,99912.53
2022-11-17T07:34:17.487Z,99906.44
2022-11-17T07:39:21.631Z,99892.41
2022-11-17T07:44:24.257Z,99896.78
2022-11-17T07:49:27.823Z,99876.66
2022-11-17T07:54:29.634Z,99877.50
2022-11-17T07:59:31.675Z,99874.88
2022-11-17T08:04:35.179Z,99873.97
2022-11-17T08:09:37.372Z,99864.34
2022-11-17T08:14:39.101Z,99861.72
2022-11-17T08:19:42.797Z,99866.97
2022-11-17T08:24:44.959Z,99864.34
2022-11-17T08:29:46.645Z,99871.34
2022-11-17T08:34:50.185Z,99868.72
2022-11-17T08:39:52.037Z,99880.09
2022-11-17T08:44:54.098Z,99877.47
2022-11-17T08:49:57.247Z,99882.72
2022-11-17T08:54:59.488Z,99881.88
2022-11-17T09:00:01.990Z,99881.00
2022-11-17T09:05:07.093Z,99880.09
2022-11-17T09:10:09.963Z,99888.00
2022-11-17T09:15:11.681Z,99875.72
2022-11-17T09:20:16.576Z,99883.59
2022-11-17T09:25:18.927Z,99887.97
2022-11-17T09:30:21.167Z,99887.97
2022-11-17T09:35:25.498Z,99880.09
2022-11-17T09:40:31.868Z,99899.38
2022-11-17T09:45:39.889Z,99894.13
2022-11-17T09:50:45.116Z,99884.47
2022-11-17T09:55:52.077Z,99876.56
2022-11-17T10:00:55.844Z,99864.31
2022-11-17T10:06:01.732Z,99854.69
2022-11-17T10:11:09.861Z,99850.28
2022-11-17T10:16:14.195Z,99851.16
2022-11-17T10:21:18.091Z,99835.38
2022-11-17T10:26:19.821Z,99830.09
2022-11-17T10:31:22.282Z,99834.44
2022-11-17T10:36:28.764Z,99841.44
2022-11-17T10:41:39.071Z,99840.59
2022-11-17T10:46:58.919Z,99826.59
2022-11-17T10:52:13.990Z,99827.47
2022-11-17T10:57:19.914Z,99816.94
2022-11-17T11:02:29.220Z,99804.66
2022-11-17T11:07:32.345Z,99805.53
2022-11-17T11:12:43.165Z,99783.59
2022-11-17T11:17:45.277Z,99783.53
2022-11-17T11:22:57.583Z,99785.25
2022-11-17T11:28:11.984Z,99787.91
2022-11-17T11:33:28.361Z,99778.22
2022-11-17T11:38:44.988Z,99777.38
2022-11-17T11:43:59.046Z,99767.72
2022-11-17T11:49:12.349Z,99767.66
2022-11-17T11:54:23.789Z,99770.34
2022-11-17T11:59:36.969Z,99761.56
2022-11-17T12:04:44.096Z,99775.59
2022-11-17T12:09:58.894Z,99753.66
2022-11-17T12:15:29.968Z,99751.88
2022-11-17T12:20:56.966Z,99760.69
2022-11-17T12:26:01.998Z,99748.38
2022-11-17T12:31:10.126Z,99753.63
2022-11-17T12:36:30.166Z,99746.63
2022-11-17T12:42:06.603Z,99748.38
2022-11-17T12:47:13.738Z,99741.38
2022-11-17T12:52:24.859Z,99758.00
2022-11-17T12:57:32.565Z,99744.84
2022-11-17T13:02:59.368Z,99746.63
2022-11-17T13:08:23.295Z,99741.38
2022-11-17T13:13:26.677Z,99755.38
2022-11-17T13:18:32.469Z,99738.78
2022-11-17T13:23:34.570Z,99737.88
2022-11-17T13:28:38.090Z,99727.41
2022-11-17T13:33:40.646Z,99720.41
2022-11-17T13:38:48.278Z,99730.03
2022-11-17T13:43:52.746Z,99730.88
2022-11-17T13:48:54.479Z,99710.75
2022-11-17T13:54:02.289Z,99719.50
2022-11-17T13:59:22.033Z,99720.41
2022-11-17T14:04:24.725Z,99720.41
2022-11-17T14:09:28.071Z,99710.84
2022-11-17T14:14:36.603Z,99721.38
2022-11-17T14:19:38.946Z,99726.72
2022-11-17T14:24:41.148Z,99722.41
2022-11-17T14:29:44.839Z,99720.69
2022-11-17T14:34:47.105Z,99727.75
2022-11-17T14:39:49.230Z,99736.50
2022-11-17T14:44:52.642Z,99728.66
2022-11-17T14:49:54.862Z,99714.69
2022-11-17T14:54:57.059Z,99734.81
2022-11-17T15:00:01.791Z,99726.09
2022-11-17T15:05:04.621Z,99727.00
2022-11-17T15:10:07.616Z,99720.88
2022-11-17T15:15:11.970Z,99728.75
2022-11-17T15:20:14.201Z,99735.75
2022-11-17T15:25:16.603Z,99732.25
2022-11-17T15:30:20.830Z,99726.16
2022-11-17T15:35:22.646Z,99727.91
2022-11-17T15:40:24.690Z,99724.41
2022-11-17T15:45:28.030Z,99727.91
2022-11-17T15:50:30.245Z,99727.03
2022-11-17T15:55:33.881Z,99727.03
2022-11-17T16:00:37.107Z,99729.66
2022-11-17T16:05:38.838Z,99721.81
2022-11-17T16:10:40.958Z,99729.69
2022-11-17T16:15:47.693Z,99724.44
2022-11-17T16:20:50.283Z,99716.56
2022-11-17T16:25:52.137Z,99719.19
2022-11-17T16:30:55.443Z,99725.28
2022-11-17T16:36:04.566Z,99720.06
2022-11-17T16:41:06.506Z,99713.06
2022-11-17T16:46:15.613Z,99719.19
2022-11-17T16:51:18.986Z,99715.69
2022-11-17T16:56:20.820Z,99722.69
2022-11-17T17:01:26.050Z,99719.16
2022-11-17T17:06:28.436Z,99723.56
2022-11-17T17:11:31.201Z,99721.78
2022-11-17T17:16:36.669Z,99723.56
2022-11-17T17:21:39.316Z,99716.56
2022-11-17T17:26:41.675Z,99714.81
2022-11-17T17:31:45.171Z,99719.16
2022-11-17T17:36:47.278Z,99730.56
2022-11-17T17:41:49.080Z,99727.91
2022-11-17T17:46:52.200Z,99741.03
2022-11-17T17:51:53.939Z,99738.44
2022-11-17T17:56:55.912Z,99728.78
2022-11-17T18:01:58.998Z,99730.53
2022-11-17T18:07:00.788Z,99743.66
2022-11-17T18:12:02.543Z,99736.66
2022-11-17T18:17:05.788Z,99736.63
2022-11-17T18:22:07.544Z,99742.78
2022-11-17T18:27:09.619Z,99746.28
2022-11-17T18:32:15.844Z,99748.00
2022-11-17T18:37:17.595Z,99752.38
2022-11-17T18:42:19.363Z,99750.63
2022-11-17T18:47:22.493Z,99747.13
2022-11-17T18:52:28.583Z,99751.50
2022-11-17T18:57:34.332Z,99752.38
2022-11-17T19:02:37.382Z,99752.38
2022-11-17T19:07:39.166Z,99754.97
2022-11-17T19:12:41.393Z,99754.13
2022-11-17T19:17:44.642Z,99757.59
2022-11-17T19:22:46.334Z,99752.38
2022-11-17T19:27:48.122Z,99756.72
2022-11-17T19:32:51.985Z,99761.06
2022-11-17T19:37:55.950Z,99764.56
2022-11-17T19:42:57.839Z,99753.19
2022-11-17T19:48:01.828Z,99754.94
2022-11-17T19:53:03.938Z,99766.28
2022-11-17T19:58:06.089Z,99762.78
2022-11-17T20:03:09.868Z,99768.88
2022-11-17T20:08:12.542Z,99768.88
2022-11-17T20:13:14.800Z,99779.34
2022-11-17T20:18:18.511Z,99774.97
2022-11-17T20:23:22.074Z,99779.34
2022-11-17T20:28:24.827Z,99774.97
2022-11-17T20:33:30.032Z,99789.81
2022-11-17T20:38:32.575Z,99783.72
2022-11-17T20:43:35.318Z,99783.72
2022-11-17T20:48:38.476Z,99788.91
2022-11-17T20:53:41.113Z,99788.03
2022-11-17T20:58:43.543Z,99787.19
2022-11-17T21:03:47.696Z,99795.03
2022-11-17T21:08:49.735Z,99800.25
2022-11-17T21:13:51.592Z,99796.69
2022-11-17T21:18:54.797Z,99799.28
2022-11-17T21:23:56.671Z,99806.25
2022-11-17T21:29:04.818Z,99815.84
2022-11-17T21:34:15.213Z,99815.81
2022-11-17T21:39:17.377Z,99809.69
2022-11-17T21:44:20.076Z,99824.53
2022-11-17T21:49:23.217Z,99814.84
2022-11-17T21:54:25.133Z,99813.09
2022-11-17T21:59:26.848Z,99825.31
2022-11-17T22:04:30.016Z,99824.44
2022-11-17T22:09:31.685Z,99827.94
2022-11-17T22:14:33.798Z,99822.69
2022-11-17T22:19:37.283Z,99822.63
2022-11-17T22:24:39.836Z,99821.75
2022-11-17T22:29:42.146Z,99829.59
2022-11-17T22:34:45.863Z,99844.47
2022-11-17T22:39:48.001Z,99846.22
2022-11-17T22:44:50.130Z,99857.56
2022-11-17T22:49:53.569Z,99855.84
2022-11-17T22:54:55.707Z,99858.44
2022-11-17T22:59:57.763Z,99852.34
2022-11-17T23:05:01.254Z,99858.41
2022-11-17T23:10:03.511Z,99847.09
2022-11-17T23:15:07.001Z,99839.25
2022-11-17T23:20:12.117Z,99856.59
2022-11-17T23:25:14.291Z,99852.25
2022-11-17T23:30:17.319Z,99860.09
2022-11-17T23:35:21.093Z,99867.06
2022-11-17T23:40:22.856Z,99867.06
2022-11-17T23:45:24.946Z,99877.50
2022-11-17T23:50:27.977Z,99874.94
2022-11-17T23:55:29.722Z,99874.84
